Time;durP1;ratioP1;P1;durP2;ratioP2;P2;SDS_P1;SDS_P2;PMS_P1;PMS_P2;Temp;Humidity;BMP_temperature;BMP_pressure;BME280_temperature;BME280_humidity;BME280_pressure;Samples;Min_cycle;Max_cycle;Signal;HPM_P1;HPM_P2
2023/03/16 00:00:19;;;;;;;11.63;9.70;;;6.60;62.50;;;;;;5053437;28;20191;-41
2023/03/16 00:02:44;;;;;;;11.90;9.40;;;6.70;61.90;;;;;;5051186;28;20297;-44
2023/03/16 00:05:12;;;;;;;10.87;9.73;;;6.70;62.00;;;;;;5053109;28;20903;-42
2023/03/16 00:07:38;;;;;;;12.80;8.97;;;6.80;61.50;;;;;;5053089;28;20216;-41
2023/03/16 00:10:05;;;;;;;13.60;9.80;;;6.80;61.10;;;;;;5053043;28;20441;-41
2023/03/16 00:12:33;;;;;;;11.07;9.37;;;6.80;60.50;;;;;;5052517;28;20459;-42
2023/03/16 00:15:00;;;;;;;12.10;10.07;;;6.70;60.50;;;;;;5052982;28;20427;-42
2023/03/16 00:17:25;;;;;;;11.33;9.47;;;6.60;61.40;;;;;;5052982;28;20453;-41
2023/03/16 00:19:56;;;;;;;11.60;9.37;;;6.70;61.30;;;;;;5052865;28;20522;-41
2023/03/16 00:22:27;;;;;;;16.60;10.70;;;6.60;60.70;;;;;;5052490;28;20231;-41
2023/03/16 00:24:53;;;;;;;12.10;9.07;;;6.40;61.50;;;;;;5053014;28;20427;-42
2023/03/16 00:27:21;;;;;;;12.00;9.50;;;6.40;61.80;;;;;;5052855;28;20502;-42
2023/03/16 00:29:48;;;;;;;11.47;9.83;;;6.50;62.40;;;;;;5051241;28;20427;-41
2023/03/16 00:32:18;;;;;;;12.37;9.60;;;6.40;61.90;;;;;;5052187;28;20937;-41
2023/03/16 00:34:45;;;;;;;13.00;9.20;;;6.20;62.60;;;;;;5052838;28;20427;-41
2023/03/16 00:37:14;;;;;;;11.80;9.77;;;5.90;62.80;;;;;;5052464;28;20981;-42
2023/03/16 00:39:40;;;;;;;14.13;11.13;;;5.80;64.60;;;;;;5052446;28;20848;-41
2023/03/16 00:42:08;;;;;;;14.77;10.73;;;5.90;64.50;;;;;;5052232;28;20522;-42
2023/03/16 00:44:35;;;;;;;13.17;10.40;;;6.10;64.30;;;;;;5052624;28;20416;-41
2023/03/16 00:47:01;;;;;;;13.43;9.93;;;6.10;63.30;;;;;;5052546;28;20427;-42
2023/03/16 00:49:26;;;;;;;12.90;9.37;;;6.10;62.90;;;;;;5052545;28;20419;-42
2023/03/16 00:51:52;;;;;;;14.60;9.83;;;6.10;63.00;;;;;;5052171;28;20481;-42
2023/03/16 00:54:18;;;;;;;12.97;10.50;;;6.10;62.80;;;;;;5052163;28;20743;-42
2023/03/16 00:56:44;;;;;;;11.93;9.23;;;6.10;62.10;;;;;;5050697;28;20200;-41
2023/03/16 00:59:11;;;;;;;14.60;10.93;;;5.90;62.80;;;;;;5052004;28;20505;-41
2023/03/16 01:01:37;;;;;;;15.23;10.73;;;5.50;64.00;;;;;;5051742;28;20206;-42
2023/03/16 01:04:03;;;;;;;17.93;10.63;;;5.40;65.00;;;;;;5052065;28;20423;-42
2023/03/16 01:06:29;;;;;;;14.53;10.20;;;5.40;66.00;;;;;;5052222;28;20854;-42
2023/03/16 01:08:54;;;;;;;13.20;9.70;;;5.60;65.20;;;;;;5052008;28;20938;-41
2023/03/16 01:11:21;;;;;;;14.60;11.23;;;5.70;64.90;;;;;;5033908;28;20652;-42
2023/03/16 01:13:48;;;;;;;19.80;9.93;;;5.80;64.40;;;;;;5052084;28;20192;-41
2023/03/16 01:16:17;;;;;;;16.20;9.83;;;6.00;63.60;;;;;;5051465;28;20419;-43
2023/03/16 01:18:43;;;;;;;27.80;10.63;;;5.90;63.30;;;;;;5051494;28;20595;-42
2023/03/16 01:21:12;;;;;;;24.63;11.43;;;5.80;63.80;;;;;;5051325;28;20419;-43
2023/03/16 01:23:38;;;;;;;21.77;10.40;;;5.50;65.10;;;;;;5050021;28;20434;-42
2023/03/16 01:26:05;;;;;;;21.13;10.53;;;5.20;66.50;;;;;;5051737;28;20516;-42
2023/03/16 01:28:32;;;;;;;14.93;10.17;;;5.10;67.30;;;;;;5051529;28;20435;-41
2023/03/16 01:31:08;;;;;;;13.33;10.13;;;5.00;68.70;;;;;;5051182;28;20434;-42
2023/03/16 01:33:35;;;;;;;23.50;12.10;;;5.20;68.50;;;;;;5051487;28;20423;-42
2023/03/16 01:36:06;;;;;;;36.53;11.40;;;5.10;68.20;;;;;;5051572;28;20449;-41
2023/03/16 01:38:32;;;;;;;14.90;11.90;;;5.20;68.30;;;;;;5051228;28;20886;-41
2023/03/16 01:40:58;;;;;;;13.93;10.60;;;5.20;68.10;;;;;;5051118;28;20572;-41
2023/03/16 01:43:27;;;;;;;15.37;10.57;;;5.40;67.70;;;;;;5051224;28;20229;-41
2023/03/16 01:46:05;;;;;;;18.50;11.00;;;5.50;66.80;;;;;;5051543;28;20833;-42
2023/03/16 01:48:47;;;;;;;14.23;10.60;;;4.90;68.20;;;;;;5051270;28;20423;-41
2023/03/16 01:51:50;;;;;;;19.03;10.53;;;5.00;69.40;;;;;;5049347;28;20439;-41
2023/03/16 01:54:30;;;;;;;13.23;10.50;;;5.00;68.30;;;;;;5050896;28;20524;-42
2023/03/16 01:57:04;;;;;;;13.50;10.30;;;5.00;68.70;;;;;;5051152;28;20431;-41
2023/03/16 01:59:45;;;;;;;14.50;10.03;;;5.00;68.50;;;;;;5051087;28;20477;-43
2023/03/16 02:02:13;;;;;;;16.90;10.23;;;5.00;68.60;;;;;;5050705;28;20795;-41
2023/03/16 02:05:00;;;;;;;13.67;10.20;;;4.80;68.90;;;;;;5050887;28;20419;-41
2023/03/16 02:07:27;;;;;;;13.77;10.50;;;4.80;69.50;;;;;;5050868;28;20922;-41
2023/03/16 02:09:57;;;;;;;15.07;10.40;;;5.10;68.70;;;;;;5051035;28;20436;-42
2023/03/16 02:12:23;;;;;;;14.70;11.20;;;5.20;67.60;;;;;;5050468;28;20533;-42
2023/03/16 02:14:49;;;;;;;12.60;10.37;;;5.20;67.40;;;;;;5050877;28;20948;-42
2023/03/16 02:17:20;;;;;;;14.43;9.73;;;5.20;66.80;;;;;;5049011;28;20237;-42
2023/03/16 02:20:00;;;;;;;13.50;9.20;;;5.20;66.70;;;;;;5050718;28;20493;-41
2023/03/16 02:22:27;;;;;;;14.33;9.53;;;5.30;66.30;;;;;;5050400;28;20427;-41
2023/03/16 02:24:53;;;;;;;13.00;9.00;;;5.20;66.00;;;;;;5050590;28;20426;-41
2023/03/16 02:27:30;;;;;;;15.97;9.20;;;5.30;66.40;;;;;;5050639;28;20415;-42
2023/03/16 02:30:01;;;;;;;12.27;9.43;;;5.20;66.10;;;;;;5049857;28;20415;-42
2023/03/16 02:32:29;;;;;;;13.40;10.30;;;5.20;66.80;;;;;;5050418;28;20430;-42
2023/03/16 02:34:56;;;;;;;12.40;10.07;;;4.90;66.70;;;;;;5050722;28;20447;-42
2023/03/16 02:37:22;;;;;;;12.87;9.53;;;5.00;67.70;;;;;;5050543;28;20435;-41
2023/03/16 02:39:48;;;;;;;13.73;9.57;;;5.20;67.20;;;;;;5050320;28;20487;-42
2023/03/16 02:42:18;;;;;;;12.27;9.20;;;5.30;66.40;;;;;;5049202;28;20193;-41
2023/03/16 02:44:49;;;;;;;11.07;9.27;;;5.30;66.00;;;;;;5050246;28;20227;-42
2023/03/16 02:47:31;;;;;;;11.83;8.77;;;5.30;66.10;;;;;;5050367;28;20493;-41
2023/03/16 02:49:57;;;;;;;11.30;9.60;;;5.30;65.50;;;;;;5050489;28;20435;-41
2023/03/16 02:52:22;;;;;;;11.30;8.90;;;5.40;65.30;;;;;;5050106;28;21012;-42
2023/03/16 02:54:48;;;;;;;13.10;9.57;;;5.50;64.50;;;;;;5050360;28;20236;-42
2023/03/16 02:57:13;;;;;;;11.27;9.00;;;5.20;65.00;;;;;;5050388;28;20299;-43
2023/03/16 02:59:40;;;;;;;10.73;9.17;;;5.10;66.60;;;;;;5050191;28;20684;-41
2023/03/16 03:02:06;;;;;;;12.20;9.67;;;5.30;66.00;;;;;;5049901;28;20228;-42
2023/03/16 03:04:31;;;;;;;13.03;10.20;;;5.20;65.50;;;;;;5050208;28;20938;-42
2023/03/16 03:07:02;;;;;;;13.07;10.00;;;5.20;65.80;;;;;;5050277;28;20200;-41
2023/03/16 03:09:28;;;;;;;13.93;9.23;;;5.40;65.50;;;;;;5048582;28;20323;-41
2023/03/16 03:11:54;;;;;;;10.70;8.97;;;5.30;65.00;;;;;;5049919;28;20510;-42
2023/03/16 03:14:19;;;;;;;12.73;8.53;;;5.00;65.40;;;;;;5050197;28;20192;-44
2023/03/16 03:16:45;;;;;;;12.73;9.40;;;4.90;65.90;;;;;;5050102;28;20271;-41
2023/03/16 03:19:11;;;;;;;10.63;9.47;;;4.50;67.50;;;;;;5049894;28;20707;-42
2023/03/16 03:21:37;;;;;;;12.63;9.30;;;4.60;68.20;;;;;;5049879;28;20533;-44
2023/03/16 03:24:04;;;;;;;12.27;9.83;;;4.70;67.70;;;;;;5050051;28;20437;-41
2023/03/16 03:26:29;;;;;;;10.87;9.03;;;4.70;67.70;;;;;;5050175;28;20246;-42
2023/03/16 03:28:55;;;;;;;10.97;9.23;;;4.80;67.40;;;;;;5050200;28;20427;-42
2023/03/16 03:31:21;;;;;;;10.43;8.87;;;4.80;66.60;;;;;;5049735;28;20203;-41
2023/03/16 03:33:48;;;;;;;11.00;8.20;;;4.60;67.10;;;;;;5050049;28;20193;-42
2023/03/16 03:36:13;;;;;;;10.87;8.90;;;4.60;67.20;;;;;;5048422;28;20944;-42
2023/03/16 03:38:40;;;;;;;11.53;9.00;;;4.70;67.40;;;;;;5049960;28;20581;-41
2023/03/16 03:41:09;;;;;;;11.23;8.57;;;4.80;66.80;;;;;;5051993;28;20587;-41
2023/03/16 03:43:34;;;;;;;14.27;8.67;;;4.70;66.60;;;;;;5053538;28;20844;-41
2023/03/16 03:46:01;;;;;;;11.50;9.03;;;4.40;67.80;;;;;;5053615;28;20419;-41
2023/03/16 03:48:27;;;;;;;12.47;9.60;;;4.20;68.70;;;;;;5053498;28;20275;-42
2023/03/16 03:50:54;;;;;;;11.67;9.47;;;4.40;68.80;;;;;;5053351;28;20431;-41
2023/03/16 03:53:19;;;;;;;15.73;8.90;;;4.40;68.30;;;;;;5053351;28;20474;-41
2023/03/16 03:55:46;;;;;;;13.30;8.67;;;4.70;67.90;;;;;;5053342;28;20494;-42
2023/03/16 03:58:12;;;;;;;10.10;8.10;;;4.80;66.70;;;;;;5053391;28;20967;-42
2023/03/16 04:00:38;;;;;;;16.30;10.00;;;4.90;66.20;;;;;;5052982;28;20434;-42
2023/03/16 04:03:05;;;;;;;11.10;8.63;;;4.80;65.80;;;;;;5051576;28;20778;-41
2023/03/16 04:05:30;;;;;;;13.80;9.57;;;4.80;66.00;;;;;;5053100;28;20311;-41
2023/03/16 04:07:57;;;;;;;11.57;8.80;;;4.90;65.50;;;;;;5053275;28;20419;-41
2023/03/16 04:10:24;;;;;;;10.53;8.70;;;4.90;65.50;;;;;;5052799;28;20271;-42
2023/03/16 04:12:50;;;;;;;11.70;8.97;;;5.10;65.10;;;;;;5053300;28;21193;-42
2023/03/16 04:15:16;;;;;;;12.17;8.83;;;5.00;64.80;;;;;;5053142;28;20439;-42
2023/03/16 04:17:44;;;;;;;11.03;8.93;;;4.90;65.00;;;;;;5052871;28;20185;-41
2023/03/16 04:20:13;;;;;;;13.80;9.80;;;5.00;65.00;;;;;;5052529;28;20224;-41
2023/03/16 04:22:41;;;;;;;13.83;8.53;;;5.20;64.60;;;;;;5052924;28;20797;-42
2023/03/16 04:25:11;;;;;;;11.50;8.87;;;5.40;64.00;;;;;;5052853;28;20431;-42
2023/03/16 04:27:36;;;;;;;10.93;9.43;;;5.40;63.00;;;;;;5052842;28;20438;-43
2023/03/16 04:30:10;;;;;;;13.07;10.10;;;5.40;62.70;;;;;;5050691;28;20427;-41
2023/03/16 04:32:36;;;;;;;12.97;9.80;;;5.40;62.40;;;;;;5052657;28;20227;-43
2023/03/16 04:35:02;;;;;;;12.80;9.13;;;5.30;62.70;;;;;;5052761;28;20416;-42
2023/03/16 04:37:27;;;;;;;12.23;9.43;;;5.20;63.10;;;;;;5052800;28;20422;-43
2023/03/16 04:39:53;;;;;;;12.10;9.00;;;5.20;63.60;;;;;;5052532;28;20485;-44
2023/03/16 04:42:19;;;;;;;14.40;9.73;;;5.10;64.00;;;;;;5052248;28;20199;-43
2023/03/16 04:44:44;;;;;;;11.70;8.93;;;5.20;63.90;;;;;;5052402;28;20271;-42
2023/03/16 04:47:11;;;;;;;11.40;8.80;;;5.20;63.70;;;;;;5052459;28;20612;-41
2023/03/16 04:49:36;;;;;;;13.80;9.60;;;5.30;63.70;;;;;;5034424;28;20910;-42
2023/03/16 04:52:03;;;;;;;10.70;8.90;;;5.30;63.60;;;;;;5051031;28;20518;-42
2023/03/16 04:54:29;;;;;;;11.77;9.40;;;5.20;63.50;;;;;;5052124;28;20318;-41
2023/03/16 04:56:55;;;;;;;10.70;9.07;;;5.10;64.70;;;;;;5051248;28;20423;-41
2023/03/16 04:59:21;;;;;;;10.83;8.80;;;5.10;64.40;;;;;;5052132;28;20897;-42
2023/03/16 05:01:48;;;;;;;14.03;9.97;;;5.10;64.10;;;;;;5051734;28;20271;-41
2023/03/16 05:04:13;;;;;;;13.50;9.73;;;5.10;64.10;;;;;;5051959;28;20872;-42
2023/03/16 05:06:40;;;;;;;13.13;8.90;;;5.10;64.50;;;;;;5052012;28;20511;-41
2023/03/16 05:09:07;;;;;;;15.33;9.97;;;5.10;64.20;;;;;;5051866;28;20721;-41
2023/03/16 05:11:33;;;;;;;12.27;9.63;;;5.00;64.60;;;;;;5051508;28;20961;-41
2023/03/16 05:14:00;;;;;;;10.83;8.50;;;5.00;65.20;;;;;;5051849;28;20432;-41
2023/03/16 05:16:27;;;;;;;13.40;9.40;;;5.00;64.80;;;;;;5051928;28;20445;-41
2023/03/16 05:18:53;;;;;;;14.53;8.97;;;5.00;64.60;;;;;;5051824;28;20487;-42
2023/03/16 05:21:19;;;;;;;15.03;9.63;;;5.00;64.90;;;;;;5051348;28;20434;-41
2023/03/16 05:23:45;;;;;;;12.53;9.53;;;5.00;64.80;;;;;;5050278;28;20223;-41
2023/03/16 05:26:12;;;;;;;11.87;8.90;;;5.00;64.70;;;;;;5051834;28;20188;-41
2023/03/16 05:28:38;;;;;;;14.60;9.60;;;5.00;64.40;;;;;;5051501;28;20446;-43
2023/03/16 05:31:03;;;;;;;10.97;9.30;;;4.90;64.60;;;;;;5051187;28;20438;-41
2023/03/16 05:33:29;;;;;;;10.90;7.77;;;4.90;64.50;;;;;;5051537;28;20964;-41
2023/03/16 05:35:56;;;;;;;13.13;9.80;;;4.90;64.60;;;;;;5051599;28;20193;-41
2023/03/16 05:38:22;;;;;;;11.40;9.97;;;4.90;64.40;;;;;;5051276;28;20243;-42
2023/03/16 05:40:51;;;;;;;13.10;9.70;;;5.10;64.40;;;;;;5051181;28;20427;-42
2023/03/16 05:43:18;;;;;;;13.10;9.20;;;5.20;63.70;;;;;;5051315;28;20514;-42
2023/03/16 05:45:43;;;;;;;13.57;9.90;;;5.30;63.30;;;;;;5051286;28;20536;-43
2023/03/16 05:48:09;;;;;;;13.40;10.20;;;5.50;62.70;;;;;;5051206;28;20469;-41
2023/03/16 05:50:34;;;;;;;12.40;9.07;;;5.70;62.10;;;;;;5049479;28;20189;-41
2023/03/16 05:53:00;;;;;;;12.77;9.27;;;5.70;61.50;;;;;;5051321;28;20199;-42
2023/03/16 05:55:26;;;;;;;13.27;9.30;;;5.70;61.30;;;;;;5051222;28;20735;-41
2023/03/16 05:57:51;;;;;;;10.30;8.67;;;5.80;61.10;;;;;;5051079;28;20204;-42
2023/03/16 06:00:17;;;;;;;13.03;9.83;;;5.80;60.90;;;;;;5050704;28;20310;-42
2023/03/16 06:02:47;;;;;;;11.37;8.80;;;5.80;60.80;;;;;;5050759;28;20200;-41
2023/03/16 06:05:13;;;;;;;11.83;9.27;;;5.70;60.90;;;;;;5050977;28;20513;-41
2023/03/16 06:07:38;;;;;;;10.53;9.20;;;5.50;61.90;;;;;;5051060;28;20941;-41
2023/03/16 06:10:05;;;;;;;12.50;8.70;;;5.50;61.90;;;;;;5050540;28;20192;-41
2023/03/16 06:12:31;;;;;;;12.90;9.43;;;5.20;62.30;;;;;;5050923;28;20602;-41
2023/03/16 06:14:56;;;;;;;12.70;9.80;;;5.30;63.00;;;;;;5050917;28;20522;-41
2023/03/16 06:17:22;;;;;;;11.50;8.63;;;5.20;63.50;;;;;;5049385;28;20193;-41
2023/03/16 06:19:48;;;;;;;14.40;9.93;;;5.00;64.00;;;;;;5050403;28;20256;-42
2023/03/16 06:22:13;;;;;;;13.43;9.97;;;5.00;65.60;;;;;;5050853;28;20272;-43
2023/03/16 06:24:39;;;;;;;12.90;9.57;;;4.80;65.50;;;;;;5050908;28;20193;-42
2023/03/16 06:27:04;;;;;;;13.43;9.80;;;4.60;67.20;;;;;;5050621;28;20209;-41
2023/03/16 06:29:30;;;;;;;12.27;9.60;;;4.50;67.50;;;;;;5050559;28;20184;-41
2023/03/16 06:31:56;;;;;;;13.07;10.00;;;4.60;68.40;;;;;;5050283;28;20246;-41
2023/03/16 06:34:21;;;;;;;12.40;9.30;;;4.90;68.10;;;;;;5051024;28;20194;-42
2023/03/16 06:36:47;;;;;;;13.43;10.33;;;5.00;67.40;;;;;;5050464;28;20197;-41
2023/03/16 06:39:13;;;;;;;15.77;10.13;;;5.20;67.20;;;;;;5050428;28;20255;-41
2023/03/16 06:41:41;;;;;;;14.37;10.33;;;5.20;66.50;;;;;;5050033;28;20678;-41
2023/03/16 06:44:07;;;;;;;10.97;8.53;;;5.30;66.40;;;;;;5048936;28;20431;-42
2023/03/16 06:46:33;;;;;;;11.77;9.23;;;5.40;66.90;;;;;;5050541;28;20441;-42
2023/03/16 06:48:59;;;;;;;13.07;8.77;;;5.40;66.50;;;;;;5050669;28;20419;-41
2023/03/16 06:51:26;;;;;;;11.40;8.90;;;5.40;66.50;;;;;;5050160;28;20184;-41
2023/03/16 06:53:51;;;;;;;11.90;8.50;;;5.40;67.10;;;;;;5050445;28;20542;-42
2023/03/16 06:56:17;;;;;;;11.27;8.17;;;5.40;67.70;;;;;;5050037;28;20549;-43
2023/03/16 06:58:42;;;;;;;11.63;9.37;;;5.70;67.40;;;;;;5050512;28;20319;-43
2023/03/16 07:01:08;;;;;;;12.80;8.23;;;6.10;66.70;;;;;;5050048;28;20203;-42
2023/03/16 07:03:33;;;;;;;13.70;8.67;;;6.20;64.90;;;;;;5050323;28;20622;-42
2023/03/16 07:05:59;;;;;;;10.27;8.57;;;6.50;64.20;;;;;;5050460;28;20254;-43
2023/03/16 07:08:25;;;;;;;13.00;8.77;;;6.70;64.00;;;;;;5050407;28;20189;-42
2023/03/16 07:10:51;;;;;;;11.63;8.77;;;6.70;63.70;;;;;;5048285;28;20193;-42
2023/03/16 07:13:17;;;;;;;13.63;7.67;;;6.90;63.10;;;;;;5050221;28;20199;-42
2023/03/16 07:15:43;;;;;;;9.57;7.97;;;6.90;62.60;;;;;;5034214;28;20443;-42
2023/03/16 07:18:11;;;;;;;10.40;8.50;;;7.10;62.80;;;;;;5054075;28;20513;-42
2023/03/16 07:20:36;;;;;;;12.50;9.60;;;7.10;62.30;;;;;;5053644;28;20789;-42
2023/03/16 07:23:03;;;;;;;11.67;9.20;;;7.00;63.00;;;;;;5053981;28;20430;-42
2023/03/16 07:25:30;;;;;;;10.70;8.83;;;6.90;63.30;;;;;;5053992;28;20193;-43
2023/03/16 07:27:56;;;;;;;11.60;8.87;;;7.20;63.70;;;;;;5054117;28;20512;-42
2023/03/16 07:30:21;;;;;;;10.40;8.77;;;7.40;62.50;;;;;;5053645;28;20483;-42
2023/03/16 07:32:47;;;;;;;13.83;9.57;;;7.50;62.20;;;;;;5054069;28;20200;-43
2023/03/16 07:35:13;;;;;;;10.60;9.10;;;7.60;62.40;;;;;;5053742;28;20855;-45
2023/03/16 07:37:38;;;;;;;12.27;9.40;;;7.80;61.30;;;;;;5052227;28;20216;-42
2023/03/16 07:40:07;;;;;;;10.20;8.33;;;7.80;60.90;;;;;;5053491;28;20227;-42
2023/03/16 07:42:34;;;;;;;9.70;8.70;;;7.80;61.60;;;;;;5053629;28;20204;-42
2023/03/16 07:45:00;;;;;;;10.43;8.60;;;7.80;62.50;;;;;;5053697;28;20429;-42
2023/03/16 07:47:27;;;;;;;11.97;9.73;;;7.60;62.50;;;;;;5053698;28;20435;-43
2023/03/16 07:49:52;;;;;;;11.63;9.20;;;7.70;63.80;;;;;;5053279;28;20467;-42
2023/03/16 07:52:18;;;;;;;10.10;8.03;;;8.10;63.40;;;;;;5053737;28;20930;-44
2023/03/16 07:54:44;;;;;;;10.10;8.60;;;8.10;62.40;;;;;;5053345;28;20322;-42
2023/03/16 07:57:10;;;;;;;9.83;8.80;;;8.20;63.00;;;;;;5053549;28;20205;-42
2023/03/16 07:59:37;;;;;;;11.67;8.73;;;8.00;61.60;;;;;;5053153;28;20224;-42
2023/03/16 08:02:03;;;;;;;11.50;10.07;;;8.00;62.10;;;;;;5053586;28;20427;-43
2023/03/16 08:04:28;;;;;;;10.33;8.67;;;8.30;62.00;;;;;;5051735;28;20953;-42
2023/03/16 08:06:59;;;;;;;15.90;9.80;;;8.10;61.90;;;;;;5053266;28;20591;-42
2023/03/16 08:09:25;;;;;;;12.50;8.70;;;8.40;63.00;;;;;;5053064;28;20542;-44
2023/03/16 08:11:51;;;;;;;11.00;9.27;;;8.50;61.30;;;;;;5052977;28;20438;-43
2023/03/16 08:14:16;;;;;;;9.63;8.63;;;8.50;62.20;;;;;;5053077;28;20423;-46
2023/03/16 08:16:42;;;;;;;12.33;9.10;;;8.80;61.90;;;;;;5053108;28;20189;-42
2023/03/16 08:19:08;;;;;;;11.97;9.70;;;8.70;61.40;;;;;;5052738;28;20289;-43
2023/03/16 08:21:35;;;;;;;11.03;9.83;;;8.90;60.70;;;;;;5052511;28;20630;-43
2023/03/16 08:24:00;;;;;;;14.13;10.07;;;9.10;60.70;;;;;;5052829;28;20522;-43
2023/03/16 08:26:26;;;;;;;13.47;9.60;;;9.30;60.60;;;;;;5052973;28;20463;-43
2023/03/16 08:28:52;;;;;;;12.60;9.60;;;9.50;59.90;;;;;;5052811;28;20652;-43
2023/03/16 08:31:20;;;;;;;9.80;8.80;;;9.60;59.20;;;;;;5050923;28;20195;-45
2023/03/16 08:33:47;;;;;;;9.83;7.80;;;9.90;58.80;;;;;;5052769;28;20485;-43
2023/03/16 08:36:14;;;;;;;12.97;9.77;;;10.10;57.80;;;;;;5052722;28;20419;-45
2023/03/16 08:38:40;;;;;;;12.47;10.00;;;10.20;56.90;;;;;;5052511;28;20510;-46
2023/03/16 08:41:07;;;;;;;10.20;7.90;;;10.10;57.60;;;;;;5052291;28;20509;-45
2023/03/16 08:43:34;;;;;;;11.97;8.40;;;10.20;57.20;;;;;;5052612;28;20446;-45
2023/03/16 08:46:00;;;;;;;10.47;9.27;;;10.30;56.90;;;;;;5052627;28;20459;-42
2023/03/16 08:48:27;;;;;;;9.90;8.87;;;10.50;56.50;;;;;;5052472;28;20442;-47
2023/03/16 08:50:54;;;;;;;9.73;8.73;;;10.60;56.10;;;;;;5052261;28;20478;-44
2023/03/16 08:53:19;;;;;;;10.63;8.80;;;10.60;56.00;;;;;;5052333;28;20431;-44
2023/03/16 08:55:45;;;;;;;10.83;8.27;;;10.80;55.70;;;;;;5052137;28;20536;-45
2023/03/16 08:58:12;;;;;;;9.53;8.43;;;10.80;55.30;;;;;;5050816;28;20204;-46
2023/03/16 09:00:39;;;;;;;9.70;8.37;;;10.80;55.30;;;;;;5051955;28;20212;-45
2023/03/16 09:03:05;;;;;;;8.90;7.90;;;10.90;55.90;;;;;;5052153;28;20833;-44
2023/03/16 09:05:32;;;;;;;9.20;8.00;;;11.00;55.30;;;;;;5052234;28;20784;-45
2023/03/16 09:07:59;;;;;;;10.13;7.40;;;11.00;55.20;;;;;;5052113;28;20426;-43
2023/03/16 09:10:26;;;;;;;8.77;7.77;;;11.20;54.70;;;;;;5051609;28;21018;-46
2023/03/16 09:12:52;;;;;;;7.83;7.00;;;11.20;54.10;;;;;;5051908;28;20514;-48
2023/03/16 09:15:19;;;;;;;9.07;7.57;;;10.90;54.20;;;;;;5052009;28;20473;-46
2023/03/16 09:17:46;;;;;;;8.90;7.33;;;11.20;54.50;;;;;;5051903;28;20431;-43
2023/03/16 09:20:14;;;;;;;8.20;7.33;;;11.50;53.60;;;;;;5051488;28;20509;-47
2023/03/16 09:22:40;;;;;;;10.70;7.40;;;11.70;53.70;;;;;;5051771;28;20427;-45
2023/03/16 09:25:07;;;;;;;12.50;7.90;;;11.80;53.10;;;;;;5050320;28;20433;-44
2023/03/16 09:27:35;;;;;;;8.53;7.47;;;11.90;52.70;;;;;;5051789;28;20204;-44
2023/03/16 09:30:02;;;;;;;7.83;7.03;;;12.00;52.20;;;;;;5051197;28;20514;-44
2023/03/16 09:32:28;;;;;;;7.30;6.60;;;12.00;52.00;;;;;;5051940;28;20485;-44
2023/03/16 09:34:54;;;;;;;7.20;6.50;;;12.50;51.80;;;;;;5051534;28;20564;-43
2023/03/16 09:37:21;;;;;;;10.80;6.53;;;12.70;51.50;;;;;;5051263;28;20438;-46
2023/03/16 09:39:50;;;;;;;6.83;6.07;;;13.00;51.20;;;;;;5051019;28;21012;-45
2023/03/16 09:42:37;;;;;;;8.43;6.27;;;13.20;49.80;;;;;;5051586;28;20457;-48
2023/03/16 09:45:33;;;;;;;8.93;6.80;;;13.40;49.60;;;;;;5051461;28;20442;-43
2023/03/16 09:48:02;;;;;;;9.90;6.03;;;13.50;48.40;;;;;;5051546;28;20449;-43
2023/03/16 09:50:33;;;;;;;8.40;6.20;;;13.60;48.60;;;;;;5049479;28;20820;-43
2023/03/16 09:53:24;;;;;;;6.07;5.47;;;13.50;47.90;;;;;;5051339;28;20441;-46
2023/03/16 09:56:23;;;;;;;5.87;5.27;;;13.50;48.30;;;;;;5050961;28;20473;-44
2023/03/16 10:02:35;;;;;;;5.30;4.80;;;14.30;47.60;;;;;;5051238;28;20991;-43
2023/03/16 10:05:11;;;;;;;6.90;6.20;;;14.30;47.00;;;;;;5051142;28;20439;-44
2023/03/16 10:07:48;;;;;;;5.30;4.80;;;14.20;46.20;;;;;;5050940;28;20471;-43
2023/03/16 10:10:17;;;;;;;5.93;5.33;;;14.20;46.00;;;;;;5050568;28;20434;-43
2023/03/16 10:12:49;;;;;;;6.90;5.33;;;14.50;45.90;;;;;;5050770;28;20443;-46
2023/03/16 10:15:19;;;;;;;6.07;5.23;;;14.70;45.50;;;;;;5050987;28;20553;-43
2023/03/16 10:18:15;;;;;;;5.30;4.80;;;14.60;44.60;;;;;;5049151;28;20435;-43
2023/03/16 10:20:42;;;;;;;5.27;4.77;;;14.60;45.30;;;;;;5050339;28;20968;-44
2023/03/16 10:23:23;;;;;;;4.73;4.30;;;14.50;45.10;;;;;;5050750;28;20431;-45
2023/03/16 10:25:53;;;;;;;5.10;4.60;;;14.70;44.50;;;;;;5050642;28;20462;-47
2023/03/16 10:28:30;;;;;;;5.27;4.77;;;14.70;44.50;;;;;;5050755;28;20518;-43
2023/03/16 10:30:59;;;;;;;5.50;4.23;;;15.00;43.70;;;;;;5050461;28;20435;-46
2023/03/16 10:33:28;;;;;;;5.10;4.60;;;14.90;43.90;;;;;;5050790;28;20419;-44
2023/03/16 10:36:23;;;;;;;5.00;4.47;;;15.00;43.70;;;;;;5050652;28;20445;-45
2023/03/16 10:38:54;;;;;;;5.00;4.23;;;15.40;43.60;;;;;;5050363;28;20485;-45
2023/03/16 10:41:20;;;;;;;6.13;4.57;;;15.60;42.60;;;;;;5050224;28;20439;-43
2023/03/16 10:43:56;;;;;;;6.07;3.93;;;15.50;42.50;;;;;;5048828;28;20427;-48
2023/03/16 10:46:27;;;;;;;4.63;3.97;;;15.20;42.80;;;;;;5050520;28;20479;-43
2023/03/16 10:48:59;;;;;;;4.30;3.90;;;15.30;43.00;;;;;;5050588;28;20427;-46
2023/03/16 10:51:28;;;;;;;7.10;4.20;;;15.60;42.60;;;;;;5053319;28;20596;-44
2023/03/16 10:54:00;;;;;;;5.67;4.10;;;15.90;42.60;;;;;;5054430;28;20869;-44
2023/03/16 10:56:34;;;;;;;5.13;4.10;;;16.10;41.30;;;;;;5054709;28;20430;-44
2023/03/16 10:59:00;;;;;;;4.10;3.70;;;16.10;40.50;;;;;;5054697;28;20486;-44
2023/03/16 11:01:28;;;;;;;4.23;3.50;;;16.20;40.40;;;;;;5054199;28;20437;-46
2023/03/16 11:03:55;;;;;;;4.60;3.43;;;15.90;39.80;;;;;;5054415;28;20510;-44
2023/03/16 11:06:24;;;;;;;4.07;3.60;;;15.40;40.30;;;;;;5054504;28;20800;-45
2023/03/16 11:08:52;;;;;;;3.70;3.40;;;15.40;41.70;;;;;;5054360;28;20435;-44
2023/03/16 11:11:32;;;;;;;5.57;3.83;;;15.70;41.10;;;;;;5052292;28;20476;-44
2023/03/16 11:14:00;;;;;;;5.67;4.07;;;16.00;41.30;;;;;;5054294;28;20793;-44
2023/03/16 11:16:35;;;;;;;5.53;3.33;;;15.90;40.40;;;;;;5054427;28;20426;-45
2023/03/16 11:19:13;;;;;;;3.97;3.67;;;16.30;40.70;;;;;;5054153;28;20945;-44
2023/03/16 11:22:01;;;;;;;5.03;4.53;;;16.60;39.60;;;;;;5053847;28;21050;-44
2023/03/16 11:24:36;;;;;;;4.70;3.70;;;16.70;39.30;;;;;;5054280;28;20427;-43
2023/03/16 11:27:07;;;;;;;3.80;3.50;;;16.80;38.20;;;;;;5054007;28;21297;-43
2023/03/16 11:29:58;;;;;;;4.60;3.60;;;16.90;39.50;;;;;;5053590;28;20434;-44
2023/03/16 11:32:36;;;;;;;3.83;3.53;;;17.30;38.50;;;;;;5053877;28;20434;-44
2023/03/16 11:35:13;;;;;;;4.53;3.53;;;17.00;38.00;;;;;;5053836;28;20934;-44
2023/03/16 11:38:03;;;;;;;4.10;3.70;;;17.00;38.50;;;;;;5052332;28;20418;-44
2023/03/16 11:40:37;;;;;;;3.30;3.00;;;17.10;38.10;;;;;;5053445;28;20479;-44
2023/03/16 11:43:17;;;;;;;3.13;2.83;;;17.60;38.20;;;;;;5053462;28;20929;-44
2023/03/16 11:45:50;;;;;;;3.07;2.70;;;17.50;37.80;;;;;;5053635;28;20435;-43
2023/03/16 11:48:41;;;;;;;3.43;2.93;;;17.50;37.20;;;;;;5053915;28;20431;-44
2023/03/16 11:51:32;;;;;;;3.43;3.07;;;17.80;37.30;;;;;;5053147;28;20854;-46
2023/03/16 11:54:26;;;;;;;3.23;2.93;;;18.20;37.30;;;;;;5053491;28;20441;-46
2023/03/16 11:57:00;;;;;;;3.77;3.47;;;18.00;35.90;;;;;;5041660;28;20426;-44
2023/03/16 11:59:29;;;;;;;3.43;3.17;;;17.90;34.80;;;;;;5052941;28;20489;-49
2023/03/16 12:02:09;;;;;;;3.67;3.23;;;17.90;36.10;;;;;;5052970;28;20431;-44
2023/03/16 12:05:00;;;;;;;2.90;2.60;;;17.90;35.70;;;;;;5051725;28;20442;-44
2023/03/16 12:07:56;;;;;;;3.23;2.73;;;18.10;35.90;;;;;;5053357;28;20442;-44
2023/03/16 12:10:58;;;;;;;3.00;2.80;;;18.00;35.00;;;;;;5052940;28;20938;-44
2023/03/16 12:13:33;;;;;;;4.90;3.10;;;17.60;33.80;;;;;;5035593;28;20453;-45
2023/03/16 12:16:14;;;;;;;3.23;2.83;;;17.40;34.50;;;;;;5053161;28;20435;-44
2023/03/16 12:18:42;;;;;;;3.60;3.20;;;16.90;34.90;;;;;;5052856;28;20528;-47
2023/03/16 12:21:19;;;;;;;3.93;3.03;;;17.20;35.60;;;;;;5052573;28;20581;-45
2023/03/16 12:23:59;;;;;;;3.50;2.80;;;17.30;35.30;;;;;;5052908;28;20423;-44
2023/03/16 12:26:29;;;;;;;3.43;2.73;;;17.80;35.90;;;;;;5052786;28;20441;-44
2023/03/16 12:28:56;;;;;;;4.43;3.40;;;17.90;34.70;;;;;;5053006;28;20435;-44
2023/03/16 12:32:02;;;;;;;4.83;2.97;;;17.80;33.40;;;;;;5051117;28;20770;-45
2023/03/16 12:34:40;;;;;;;3.67;2.47;;;17.30;35.60;;;;;;5038932;28;20438;-44
2023/03/16 12:37:37;;;;;;;3.20;2.47;;;17.40;34.50;;;;;;5052724;28;20420;-45
2023/03/16 12:40:25;;;;;;;3.90;2.60;;;17.70;35.00;;;;;;5048166;28;20556;-44
2023/03/16 12:43:07;;;;;;;5.20;2.73;;;17.90;34.10;;;;;;5052692;28;20952;-44
2023/03/16 12:45:46;;;;;;;4.00;2.60;;;18.20;33.10;;;;;;5052680;28;20861;-45
2023/03/16 12:48:27;;;;;;;2.93;2.70;;;17.90;32.90;;;;;;5052483;28;20431;-45
2023/03/16 12:50:57;;;;;;;3.73;2.57;;;18.00;32.80;;;;;;5052170;28;20950;-44
2023/03/16 12:53:39;;;;;;;3.10;2.40;;;18.30;33.70;;;;;;5052458;28;20458;-43
2023/03/16 12:56:10;;;;;;;3.07;2.60;;;17.60;32.80;;;;;;5052277;28;20474;-43
2023/03/16 12:58:42;;;;;;;4.90;3.07;;;17.60;34.40;;;;;;5050736;28;20435;-44
2023/03/16 13:01:11;;;;;;;2.67;2.30;;;18.00;33.60;;;;;;5051768;28;20431;-43